createdAt,value
2022-10-18T00:04:39.321Z,22.82
2022-10-18T00:09:32.741Z,22.68
2022-10-18T00:14:27.169Z,22.79
2022-10-18T00:19:24.715Z,22.81
2022-10-18T00:24:20.982Z,22.82
2022-10-18T00:29:15.847Z,22.76
2022-10-18T00:34:13.110Z,22.82
2022-10-18T00:39:08.489Z,22.70
2022-10-18T00:44:27.172Z,22.80
2022-10-18T00:49:32.633Z,22.73
2022-10-18T00:54:27.550Z,22.67
2022-10-18T00:59:21.499Z,22.65
2022-10-18T01:04:17.018Z,22.75
2022-10-18T01:09:42.143Z,22.78
2022-10-18T01:14:40.950Z,22.79
2022-10-18T01:20:01.640Z,22.79
2022-10-18T01:24:57.461Z,22.54
2022-10-18T01:30:28.555Z,22.77
2022-10-18T01:35:35.735Z,22.68
2022-10-18T01:40:30.360Z,22.64
2022-10-18T01:45:26.108Z,22.76
2022-10-18T01:50:31.978Z,22.61
2022-10-18T01:55:40.701Z,22.64
2022-10-18T02:00:43.037Z,22.77
2022-10-18T02:05:41.080Z,22.77
2022-10-18T02:10:50.599Z,22.72
2022-10-18T02:15:52.217Z,22.66
2022-10-18T02:20:48.077Z,22.70
2022-10-18T02:25:41.532Z,22.77
2022-10-18T02:31:07.828Z,22.65
2022-10-18T02:36:06.781Z,22.62
2022-10-18T02:41:00.571Z,22.74
2022-10-18T02:45:54.299Z,22.72
2022-10-18T02:50:47.908Z,22.73
2022-10-18T02:55:40.506Z,22.60
2022-10-18T03:00:33.371Z,22.73
2022-10-18T03:05:27.735Z,22.62
2022-10-18T03:10:21.553Z,22.73
2022-10-18T03:15:15.891Z,22.73
2022-10-18T03:20:10.006Z,22.72
2022-10-18T03:25:04.144Z,22.57
2022-10-18T03:29:57.461Z,22.71
2022-10-18T03:34:52.741Z,22.71
2022-10-18T03:39:45.814Z,22.57
2022-10-18T03:44:38.680Z,22.60
2022-10-18T03:54:45.947Z,22.56
2022-10-18T03:59:39.772Z,22.56
2022-10-18T04:04:33.113Z,22.69
2022-10-18T04:09:27.136Z,22.68
2022-10-18T04:14:22.294Z,22.57
2022-10-18T04:19:16.087Z,22.65
2022-10-18T04:24:09.131Z,22.64
2022-10-18T04:29:03.090Z,22.57
2022-10-18T04:33:56.687Z,22.51
2022-10-18T04:38:50.488Z,22.63
2022-10-18T04:48:58.323Z,22.51
2022-10-18T04:53:52.307Z,22.41
2022-10-18T04:58:45.691Z,22.63
2022-10-18T05:03:39.221Z,22.63
2022-10-18T05:08:35.381Z,22.49
2022-10-18T05:13:28.791Z,22.63
2022-10-18T05:18:22.720Z,22.58
2022-10-18T05:23:15.919Z,22.54
2022-10-18T05:28:10.751Z,22.49
2022-10-18T05:33:15.001Z,22.45
2022-10-18T05:38:09.237Z,22.43
2022-10-18T05:43:03.105Z,22.42
2022-10-18T05:48:01.186Z,22.38
2022-10-18T05:53:06.959Z,22.37
2022-10-18T05:58:06.581Z,22.23
2022-10-18T06:03:00.727Z,21.84
2022-10-18T06:07:55.335Z,21.60
2022-10-18T06:12:48.561Z,21.37
2022-10-18T06:17:42.751Z,21.22
2022-10-18T06:22:37.239Z,21.28
2022-10-18T06:27:32.319Z,21.35
2022-10-18T06:32:26.051Z,21.47
2022-10-18T06:37:19.286Z,21.57
2022-10-18T06:42:13.402Z,21.60
2022-10-18T06:47:08.451Z,21.68
2022-10-18T06:52:03.381Z,21.66
2022-10-18T06:56:58.356Z,21.69
2022-10-18T07:01:52.631Z,21.71
2022-10-18T07:06:46.049Z,21.75
2022-10-18T07:11:43.803Z,21.75
2022-10-18T07:16:37.718Z,21.63
2022-10-18T07:21:32.256Z,21.75
2022-10-18T07:26:31.180Z,21.77
2022-10-18T07:31:24.943Z,21.75
2022-10-18T07:36:17.692Z,21.78
2022-10-18T07:41:12.989Z,21.77
2022-10-18T07:46:07.617Z,21.71
2022-10-18T07:51:02.839Z,21.78
2022-10-18T07:56:07.175Z,21.79
2022-10-18T08:01:04.129Z,21.93
2022-10-18T08:05:58.522Z,21.85
2022-10-18T08:10:52.215Z,21.98
2022-10-18T08:15:45.779Z,21.88
2022-10-18T08:20:43.868Z,22.01
2022-10-18T08:25:37.814Z,22.07
2022-10-18T08:30:31.131Z,22.12
2022-10-18T08:35:24.453Z,22.12
2022-10-18T08:40:18.320Z,22.01
2022-10-18T08:45:30.109Z,22.16
2022-10-18T08:50:35.888Z,22.22
2022-10-18T08:55:54.942Z,22.23
2022-10-18T09:01:08.045Z,22.26
2022-10-18T09:06:10.749Z,22.18
2022-10-18T09:11:12.733Z,22.27
2022-10-18T09:16:11.517Z,22.35
2022-10-18T09:21:24.867Z,22.31
2022-10-18T09:26:21.295Z,22.32
2022-10-18T09:31:31.256Z,22.34
2022-10-18T09:36:35.968Z,22.21
2022-10-18T09:41:54.969Z,22.34
2022-10-18T09:46:52.564Z,22.28
2022-10-18T09:51:47.604Z,22.21
2022-10-18T10:01:56.410Z,22.36
2022-10-18T10:06:54.779Z,22.39
2022-10-18T10:11:53.020Z,22.30
2022-10-18T10:16:55.534Z,22.30
2022-10-18T10:21:51.318Z,22.28
2022-10-18T10:26:45.932Z,22.17
2022-10-18T10:31:39.733Z,22.45
2022-10-18T10:36:35.577Z,22.46
2022-10-18T10:41:29.613Z,22.34
2022-10-18T10:46:23.840Z,22.24
2022-10-18T10:51:29.242Z,22.47
2022-10-18T10:56:26.232Z,22.39
2022-10-18T11:01:22.553Z,22.46
2022-10-18T11:06:41.140Z,22.46
2022-10-18T11:11:47.133Z,22.48
2022-10-18T11:16:51.824Z,22.39
2022-10-18T11:21:45.685Z,22.25
2022-10-18T11:26:47.037Z,22.37
2022-10-18T11:31:49.430Z,22.51
2022-10-18T11:37:26.461Z,22.36
2022-10-18T11:42:16.317Z,22.53
2022-10-18T11:47:31.077Z,22.54
2022-10-18T11:52:36.916Z,22.47
2022-10-18T11:57:47.717Z,22.54
2022-10-18T12:02:59.063Z,22.55
2022-10-18T12:08:15.019Z,22.56
2022-10-18T12:13:13.976Z,22.56
2022-10-18T12:18:17.003Z,22.46
2022-10-18T12:23:16.601Z,22.59
2022-10-18T12:28:47.487Z,22.57
2022-10-18T12:33:46.016Z,22.56
2022-10-18T12:38:43.087Z,22.57
2022-10-18T12:44:00.059Z,22.58
2022-10-18T12:49:23.469Z,22.58
2022-10-18T12:54:25.495Z,22.59
2022-10-18T12:59:18.293Z,22.61
2022-10-18T13:04:32.920Z,22.61
2022-10-18T13:09:28.844Z,22.52
2022-10-18T13:15:12.380Z,22.63
2022-10-18T13:20:56.220Z,22.63
2022-10-18T13:26:11.063Z,22.56
2022-10-18T13:31:14.352Z,22.49
2022-10-18T13:36:26.611Z,22.65
2022-10-18T13:41:25.242Z,22.56
2022-10-18T13:46:39.568Z,22.63
2022-10-18T13:51:43.513Z,22.68
2022-10-18T13:56:55.077Z,22.68
2022-10-18T14:01:57.345Z,22.55
2022-10-18T14:06:52.629Z,22.55
2022-10-18T14:11:56.347Z,22.57
2022-10-18T14:17:14.197Z,22.68
2022-10-18T14:22:41.876Z,22.68
2022-10-18T14:27:42.228Z,22.69
2022-10-18T14:32:36.761Z,22.70
2022-10-18T14:37:35.401Z,22.68
2022-10-18T14:42:29.936Z,22.53
2022-10-18T14:47:44.358Z,22.60
2022-10-18T14:52:38.579Z,22.71
2022-10-18T14:57:35.827Z,22.58
2022-10-18T15:02:35.713Z,22.56
2022-10-18T15:07:46.991Z,22.70
2022-10-18T15:13:04.875Z,22.63
2022-10-18T15:17:59.259Z,22.73
2022-10-18T15:22:57.351Z,22.73
2022-10-18T15:27:54.265Z,22.69
2022-10-18T15:32:59.136Z,22.71
2022-10-18T15:38:06.818Z,22.71
2022-10-18T15:43:26.152Z,22.72
2022-10-18T15:48:32.380Z,22.73
2022-10-18T15:53:48.230Z,22.74
2022-10-18T15:59:09.010Z,22.73
2022-10-18T16:04:16.526Z,22.74
2022-10-18T16:09:17.295Z,22.63
2022-10-18T16:14:14.206Z,22.75
2022-10-18T16:19:17.391Z,22.73
2022-10-18T16:24:19.091Z,22.75
2022-10-18T16:29:20.884Z,22.75
2022-10-18T16:34:19.420Z,22.63
2022-10-18T16:39:17.955Z,22.74
2022-10-18T16:44:15.473Z,22.77
2022-10-18T16:49:28.318Z,22.67
2022-10-18T16:54:30.493Z,22.77
2022-10-18T16:59:33.886Z,22.41
2022-10-18T17:04:33.613Z,22.75
2022-10-18T17:09:31.063Z,22.74
2022-10-18T17:14:33.323Z,22.75
2022-10-18T17:19:37.157Z,22.76
2022-10-18T17:24:35.603Z,22.65
2022-10-18T17:29:35.964Z,22.77
2022-10-18T17:39:36.099Z,22.77
2022-10-18T17:44:37.371Z,22.83
2022-10-18T17:49:33.755Z,22.83
2022-10-18T17:54:36.467Z,22.83
2022-10-18T17:59:35.475Z,22.85
2022-10-18T18:04:35.603Z,22.88
2022-10-18T18:09:34.284Z,22.92
2022-10-18T18:14:29.146Z,22.84
2022-10-18T18:19:26.548Z,22.85
2022-10-18T18:24:43.580Z,22.87
2022-10-18T18:29:45.505Z,23.02
2022-10-18T18:34:46.684Z,22.93
2022-10-18T18:39:42.471Z,22.97
2022-10-18T18:44:38.505Z,23.05
2022-10-18T18:49:36.203Z,22.94
2022-10-18T18:54:31.454Z,23.07
2022-10-18T18:59:25.514Z,22.91
2022-10-18T19:04:22.615Z,22.97
2022-10-18T19:09:23.536Z,22.95
2022-10-18T19:14:18.620Z,22.93
2022-10-18T19:19:15.211Z,22.77
2022-10-18T19:24:09.450Z,22.89
2022-10-18T19:29:05.897Z,22.87
2022-10-18T19:34:00.228Z,22.90
2022-10-18T19:38:54.374Z,22.68
2022-10-18T19:43:51.724Z,22.94
2022-10-18T19:48:45.428Z,22.93
2022-10-18T19:53:39.841Z,22.93
2022-10-18T19:58:33.129Z,22.94
2022-10-18T20:03:31.124Z,22.95
2022-10-18T20:08:24.143Z,22.95
2022-10-18T20:13:21.332Z,22.94
2022-10-18T20:18:15.391Z,22.94
2022-10-18T20:23:08.166Z,22.95
2022-10-18T20:28:02.522Z,22.94
2022-10-18T20:32:56.430Z,22.94
2022-10-18T20:37:55.205Z,22.93
2022-10-18T20:42:53.282Z,22.96
2022-10-18T20:47:48.655Z,22.93
2022-10-18T20:52:46.350Z,22.95
2022-10-18T20:57:49.298Z,22.94
2022-10-18T21:02:46.573Z,22.95
2022-10-18T21:07:43.630Z,22.95
2022-10-18T21:12:41.116Z,22.95
2022-10-18T21:17:39.038Z,22.95
2022-10-18T21:22:36.162Z,22.95
2022-10-18T21:27:31.795Z,22.94
2022-10-18T21:32:33.469Z,22.95
2022-10-18T21:37:35.113Z,22.94
2022-10-18T21:42:32.738Z,22.95
2022-10-18T21:47:28.915Z,22.95
2022-10-18T21:52:27.414Z,22.94
2022-10-18T21:57:23.621Z,22.91
2022-10-18T22:02:21.485Z,22.92
2022-10-18T22:07:19.012Z,22.91
2022-10-18T22:12:13.334Z,22.85
2022-10-18T22:17:08.481Z,22.89
2022-10-18T22:22:04.805Z,22.77
2022-10-18T22:27:05.080Z,22.86
2022-10-18T22:31:59.578Z,22.85
2022-10-18T22:36:54.213Z,22.84
2022-10-18T22:41:53.407Z,22.84
2022-10-18T22:46:50.624Z,22.73
2022-10-18T22:51:45.370Z,22.82
2022-10-18T22:56:39.733Z,22.82
2022-10-18T23:01:46.516Z,22.80
2022-10-18T23:06:44.401Z,22.83
2022-10-18T23:11:40.505Z,22.83
2022-10-18T23:16:45.249Z,22.72
2022-10-18T23:21:40.915Z,22.83
2022-10-18T23:26:36.172Z,22.82
2022-10-18T23:31:40.051Z,22.79
2022-10-18T23:36:41.107Z,22.83
2022-10-18T23:41:40.083Z,22.83
2022-10-18T23:46:38.741Z,22.82
2022-10-18T23:51:47.736Z,22.64
2022-10-18T23:56:45.668Z,22.81
